Etusivu
METAR-TAF:

METAR-TAF

Lentoasemat :

Lawrence Municipal Airport

Lawrence, Kansas, Yhdysvallat

Leveyspiiri: 39-00-30N, Pituuspiiri: 095-12-42W, korkeus merenpinnasta: 253 m

Tämänhetkinen sää

Tämä raportti tehtiin 1 tunti ja 6 minuuttia sitten, kello 09.52 UTC
Tuuli 5 kn idästä
Lämpötila 21°C
Kosteus 100%
Ilmanpaine 1013 hPa
Näkyvyys: 11.3 km
selkeää

METAR: KLWC 140952Z AUTO 08005KT 7SM CLR 21/21 A2992 RMK AO1 SLP125 T02110211

Aika: 05:58 (10:58 UTC)


TAF: puuttuu

Säähavainnot ja -ennusteet yli 4000 lentoasemalta (METAR- ja TAF-raportit).

Käytössä olevat sääasemat on merkitty karttaan keltaisilla ja punaisilla pisteillä.

Aseta hiiri pisteen päälle nähdäksesi sääaseman nimen.

Klikkaa sitten nähdäksesi säähavainnot ja -ennusteet.

Kartan vaihtaminen: klikkaa mustalla rastilla varustettuja vihreitä pisteitä, niin voit zoomata sisään; viivalla varustettua vihreää pistettä, niin voit zoomata ulos tai vihreitä nuolia, niin pääset viereisille kartoille.


METAR-TAF: